sensor_id;sensor_type;location;lat;lon;timestamp;pressure;altitude;pressure_sealevel;temperature;humidity
70338;BME280;57757;53.198;19.646;2022-09-03T00:00:41;100883.70;;;11.67;55.46
70338;BME280;57757;53.198;19.646;2022-09-03T00:03:19;100882.48;;;11.66;55.71
70338;BME280;57757;53.198;19.646;2022-09-03T00:06:00;100881.45;;;11.65;55.72
70338;BME280;57757;53.198;19.646;2022-09-03T00:11:29;100876.27;;;11.63;55.89
70338;BME280;57757;53.198;19.646;2022-09-03T00:16:45;100873.70;;;11.60;56.06
70338;BME280;57757;53.198;19.646;2022-09-03T00:19:19;100870.64;;;11.56;56.11
70338;BME280;57757;53.198;19.646;2022-09-03T00:21:55;100872.09;;;11.53;56.09
70338;BME280;57757;53.198;19.646;2022-09-03T00:24:29;100876.63;;;11.53;56.13
70338;BME280;57757;53.198;19.646;2022-09-03T00:27:02;100878.75;;;11.50;56.13
70338;BME280;57757;53.198;19.646;2022-09-03T00:29:36;100877.21;;;11.49;56.16
70338;BME280;57757;53.198;19.646;2022-09-03T00:32:27;100879.31;;;11.48;56.25
70338;BME280;57757;53.198;19.646;2022-09-03T00:35:00;100879.89;;;11.44;56.22
70338;BME280;57757;53.198;19.646;2022-09-03T00:37:28;100874.55;;;11.42;56.42
70338;BME280;57757;53.198;19.646;2022-09-03T00:40:02;100872.13;;;11.40;56.30
70338;BME280;57757;53.198;19.646;2022-09-03T00:42:42;100872.65;;;11.39;56.51
70338;BME280;57757;53.198;19.646;2022-09-03T00:45:32;100871.81;;;11.37;56.53
70338;BME280;57757;53.198;19.646;2022-09-03T00:48:23;100870.45;;;11.36;56.53
70338;BME280;57757;53.198;19.646;2022-09-03T00:51:22;100865.57;;;11.36;56.64
70338;BME280;57757;53.198;19.646;2022-09-03T00:54:03;100866.42;;;11.38;56.72
70338;BME280;57757;53.198;19.646;2022-09-03T01:02:02;100859.16;;;11.34;56.92
70338;BME280;57757;53.198;19.646;2022-09-03T01:13:15;100868.47;;;11.28;57.10
70338;BME280;57757;53.198;19.646;2022-09-03T01:18:38;100865.16;;;11.30;57.09
70338;BME280;57757;53.198;19.646;2022-09-03T01:23:55;100867.06;;;11.30;57.17
70338;BME280;57757;53.198;19.646;2022-09-03T01:32:21;100861.42;;;11.23;57.29
70338;BME280;57757;53.198;19.646;2022-09-03T01:35:13;100859.58;;;11.19;57.29
70338;BME280;57757;53.198;19.646;2022-09-03T01:40:45;100861.86;;;11.17;57.47
70338;BME280;57757;53.198;19.646;2022-09-03T01:43:41;100864.98;;;11.18;57.40
70338;BME280;57757;53.198;19.646;2022-09-03T01:46:23;100862.17;;;11.19;57.51
70338;BME280;57757;53.198;19.646;2022-09-03T01:49:01;100862.85;;;11.21;57.42
70338;BME280;57757;53.198;19.646;2022-09-03T01:51:32;100860.76;;;11.21;57.52
70338;BME280;57757;53.198;19.646;2022-09-03T02:00:15;100853.02;;;11.15;57.63
70338;BME280;57757;53.198;19.646;2022-09-03T02:02:45;100854.43;;;11.13;57.73
70338;BME280;57757;53.198;19.646;2022-09-03T02:05:22;100853.23;;;11.12;57.63
70338;BME280;57757;53.198;19.646;2022-09-03T02:08:07;100852.05;;;11.10;57.65
70338;BME280;57757;53.198;19.646;2022-09-03T02:10:47;100853.09;;;11.10;57.65
70338;BME280;57757;53.198;19.646;2022-09-03T02:13:22;100854.11;;;11.12;57.78
70338;BME280;57757;53.198;19.646;2022-09-03T02:15:53;100850.98;;;11.11;57.81
70338;BME280;57757;53.198;19.646;2022-09-03T02:18:24;100846.66;;;11.10;57.94
70338;BME280;57757;53.198;19.646;2022-09-03T02:20:53;100843.73;;;11.08;57.79
70338;BME280;57757;53.198;19.646;2022-09-03T02:23:22;100841.70;;;11.03;57.81
70338;BME280;57757;53.198;19.646;2022-09-03T02:26:00;100842.95;;;11.01;57.81
70338;BME280;57757;53.198;19.646;2022-09-03T02:28:29;100848.69;;;11.00;57.76
70338;BME280;57757;53.198;19.646;2022-09-03T02:30:58;100847.16;;;10.99;57.79
70338;BME280;57757;53.198;19.646;2022-09-03T02:33:26;100848.73;;;10.99;58.09
70338;BME280;57757;53.198;19.646;2022-09-03T02:35:54;100846.29;;;10.99;58.01
70338;BME280;57757;53.198;19.646;2022-09-03T02:38:24;100847.34;;;10.98;58.05
70338;BME280;57757;53.198;19.646;2022-09-03T02:40:53;100847.17;;;10.97;58.04
70338;BME280;57757;53.198;19.646;2022-09-03T02:43:26;100852.95;;;10.95;58.05
70338;BME280;57757;53.198;19.646;2022-09-03T02:46:01;100851.59;;;10.93;58.10
70338;BME280;57757;53.198;19.646;2022-09-03T02:48:29;100852.15;;;10.91;58.10
70338;BME280;57757;53.198;19.646;2022-09-03T02:50:57;100849.95;;;10.86;57.89
70338;BME280;57757;53.198;19.646;2022-09-03T02:53:25;100853.00;;;10.80;58.23
70338;BME280;57757;53.198;19.646;2022-09-03T02:55:59;100855.14;;;10.75;58.25
70338;BME280;57757;53.198;19.646;2022-09-03T02:58:28;100854.35;;;10.70;58.20
70338;BME280;57757;53.198;19.646;2022-09-03T03:00:58;100853.51;;;10.69;58.09
70338;BME280;57757;53.198;19.646;2022-09-03T03:03:25;100854.02;;;10.70;58.36
70338;BME280;57757;53.198;19.646;2022-09-03T03:05:56;100852.29;;;10.69;58.40
70338;BME280;57757;53.198;19.646;2022-09-03T03:08:26;100849.72;;;10.66;58.30
70338;BME280;57757;53.198;19.646;2022-09-03T03:10:56;100854.27;;;10.64;58.49
70338;BME280;57757;53.198;19.646;2022-09-03T03:13:29;100856.02;;;10.63;58.59
70338;BME280;57757;53.198;19.646;2022-09-03T03:15:59;100853.63;;;10.60;58.42
70338;BME280;57757;53.198;19.646;2022-09-03T03:18:27;100852.76;;;10.58;58.70
70338;BME280;57757;53.198;19.646;2022-09-03T03:20:55;100852.28;;;10.57;58.63
70338;BME280;57757;53.198;19.646;2022-09-03T03:23:22;100857.15;;;10.55;58.59
70338;BME280;57757;53.198;19.646;2022-09-03T03:25:50;100859.23;;;10.55;58.58
70338;BME280;57757;53.198;19.646;2022-09-03T03:28:17;100854.54;;;10.56;58.45
70338;BME280;57757;53.198;19.646;2022-09-03T03:30:46;100862.02;;;10.56;58.67
70338;BME280;57757;53.198;19.646;2022-09-03T03:33:15;100860.27;;;10.56;58.76
70338;BME280;57757;53.198;19.646;2022-09-03T03:35:42;100860.45;;;10.55;58.77
70338;BME280;57757;53.198;19.646;2022-09-03T03:38:10;100860.83;;;10.53;58.56
70338;BME280;57757;53.198;19.646;2022-09-03T03:40:38;100863.45;;;10.52;58.81
70338;BME280;57757;53.198;19.646;2022-09-03T03:43:06;100864.70;;;10.50;58.86
70338;BME280;57757;53.198;19.646;2022-09-03T03:45:33;100863.52;;;10.48;58.87
70338;BME280;57757;53.198;19.646;2022-09-03T03:48:01;100862.33;;;10.46;58.73
70338;BME280;57757;53.198;19.646;2022-09-03T03:50:28;100867.70;;;10.46;58.78
70338;BME280;57757;53.198;19.646;2022-09-03T03:52:59;100862.33;;;10.46;58.65
70338;BME280;57757;53.198;19.646;2022-09-03T03:55:28;100865.98;;;10.46;58.87
70338;BME280;57757;53.198;19.646;2022-09-03T03:58:01;100864.09;;;10.43;58.79
70338;BME280;57757;53.198;19.646;2022-09-03T04:00:29;100860.66;;;10.39;58.93
70338;BME280;57757;53.198;19.646;2022-09-03T04:02:58;100860.34;;;10.38;59.02
70338;BME280;57757;53.198;19.646;2022-09-03T04:05:25;100860.34;;;10.36;59.06
70338;BME280;57757;53.198;19.646;2022-09-03T04:07:53;100863.48;;;10.35;59.11
70338;BME280;57757;53.198;19.646;2022-09-03T04:10:20;100863.86;;;10.33;59.16
70338;BME280;57757;53.198;19.646;2022-09-03T04:12:48;100864.05;;;10.32;59.13
70338;BME280;57757;53.198;19.646;2022-09-03T04:15:15;100861.59;;;10.33;58.97
70338;BME280;57757;53.198;19.646;2022-09-03T04:17:43;100866.41;;;10.38;59.09
70338;BME280;57757;53.198;19.646;2022-09-03T04:20:10;100866.02;;;10.42;59.13
70338;BME280;57757;53.198;19.646;2022-09-03T04:22:38;100871.73;;;10.44;59.08
70338;BME280;57757;53.198;19.646;2022-09-03T04:25:05;100870.32;;;10.46;59.17
70338;BME280;57757;53.198;19.646;2022-09-03T04:27:33;100865.06;;;10.49;59.22
70338;BME280;57757;53.198;19.646;2022-09-03T04:30:01;100865.69;;;10.54;59.21
70338;BME280;57757;53.198;19.646;2022-09-03T04:32:30;100871.90;;;10.57;59.16
70338;BME280;57757;53.198;19.646;2022-09-03T04:35:19;100869.98;;;10.60;59.00
70338;BME280;57757;53.198;19.646;2022-09-03T04:37:48;100870.98;;;10.62;59.18
70338;BME280;57757;53.198;19.646;2022-09-03T04:40:15;100871.29;;;10.65;59.22
70338;BME280;57757;53.198;19.646;2022-09-03T04:42:43;100866.20;;;10.69;59.24
70338;BME280;57757;53.198;19.646;2022-09-03T04:45:11;100864.21;;;10.74;59.25
70338;BME280;57757;53.198;19.646;2022-09-03T04:47:42;100866.73;;;10.81;59.24
70338;BME280;57757;53.198;19.646;2022-09-03T04:50:09;100868.89;;;10.89;59.17
70338;BME280;57757;53.198;19.646;2022-09-03T04:52:36;100872.09;;;10.96;59.20
70338;BME280;57757;53.198;19.646;2022-09-03T04:55:05;100875.80;;;11.04;59.26
70338;BME280;57757;53.198;19.646;2022-09-03T04:57:33;100876.21;;;11.12;59.35
70338;BME280;57757;53.198;19.646;2022-09-03T05:00:04;100875.07;;;11.18;59.22
70338;BME280;57757;53.198;19.646;2022-09-03T05:02:32;100876.05;;;11.23;59.29
70338;BME280;57757;53.198;19.646;2022-09-03T05:05:00;100878.93;;;11.29;59.06
70338;BME280;57757;53.198;19.646;2022-09-03T05:07:29;100877.45;;;11.33;59.24
70338;BME280;57757;53.198;19.646;2022-09-03T05:10:10;100879.64;;;11.39;59.03
70338;BME280;57757;53.198;19.646;2022-09-03T05:12:42;100876.09;;;11.42;59.20
70338;BME280;57757;53.198;19.646;2022-09-03T05:15:09;100873.58;;;11.46;59.18
70338;BME280;57757;53.198;19.646;2022-09-03T05:17:37;100876.81;;;11.52;59.17
70338;BME280;57757;53.198;19.646;2022-09-03T05:20:06;100876.58;;;11.55;59.11
70338;BME280;57757;53.198;19.646;2022-09-03T05:22:34;100870.41;;;11.60;58.91
70338;BME280;57757;53.198;19.646;2022-09-03T05:25:02;100869.59;;;11.67;58.96
70338;BME280;57757;53.198;19.646;2022-09-03T05:27:31;100866.20;;;11.73;58.80
70338;BME280;57757;53.198;19.646;2022-09-03T05:29:58;100866.92;;;11.82;58.85
70338;BME280;57757;53.198;19.646;2022-09-03T05:32:29;100867.99;;;11.90;58.90
70338;BME280;57757;53.198;19.646;2022-09-03T05:34:57;100869.24;;;11.99;58.77
70338;BME280;57757;53.198;19.646;2022-09-03T05:37:24;100870.98;;;12.07;58.69
70338;BME280;57757;53.198;19.646;2022-09-03T05:39:52;100868.23;;;12.15;58.77
70338;BME280;57757;53.198;19.646;2022-09-03T05:42:20;100867.74;;;12.22;58.83
70338;BME280;57757;53.198;19.646;2022-09-03T05:44:48;100871.08;;;12.29;58.66
70338;BME280;57757;53.198;19.646;2022-09-03T05:47:16;100866.77;;;12.36;58.65
70338;BME280;57757;53.198;19.646;2022-09-03T05:49:43;100869.90;;;12.45;58.38
70338;BME280;57757;53.198;19.646;2022-09-03T05:52:11;100865.21;;;12.52;58.45
70338;BME280;57757;53.198;19.646;2022-09-03T05:54:38;100860.02;;;12.59;58.32
70338;BME280;57757;53.198;19.646;2022-09-03T05:57:06;100855.89;;;12.65;58.15
70338;BME280;57757;53.198;19.646;2022-09-03T05:59:34;100852.95;;;12.71;58.17
70338;BME280;57757;53.198;19.646;2022-09-03T06:02:01;100854.05;;;12.76;58.24
70338;BME280;57757;53.198;19.646;2022-09-03T06:04:29;100857.05;;;12.83;58.02
70338;BME280;57757;53.198;19.646;2022-09-03T06:06:56;100857.06;;;12.90;57.93
70338;BME280;57757;53.198;19.646;2022-09-03T06:09:24;100860.05;;;12.98;57.75
70338;BME280;57757;53.198;19.646;2022-09-03T06:11:52;100858.84;;;13.04;57.75
70338;BME280;57757;53.198;19.646;2022-09-03T06:14:23;100858.01;;;13.12;57.55
70338;BME280;57757;53.198;19.646;2022-09-03T06:16:51;100859.43;;;13.18;57.59
70338;BME280;57757;53.198;19.646;2022-09-03T06:19:19;100860.52;;;13.24;57.50
70338;BME280;57757;53.198;19.646;2022-09-03T06:21:47;100862.98;;;13.31;57.31
70338;BME280;57757;53.198;19.646;2022-09-03T06:24:17;100859.14;;;13.37;57.34
70338;BME280;57757;53.198;19.646;2022-09-03T06:26:46;100863.84;;;13.46;57.27
70338;BME280;57757;53.198;19.646;2022-09-03T06:29:14;100860.84;;;13.53;57.18
70338;BME280;57757;53.198;19.646;2022-09-03T06:31:42;100864.86;;;13.61;57.01
70338;BME280;57757;53.198;19.646;2022-09-03T06:34:10;100866.22;;;13.68;57.22
70338;BME280;57757;53.198;19.646;2022-09-03T06:36:39;100870.91;;;13.77;57.21
70338;BME280;57757;53.198;19.646;2022-09-03T06:39:08;100867.17;;;13.86;57.01
70338;BME280;57757;53.198;19.646;2022-09-03T06:41:35;100867.13;;;13.95;57.10
70338;BME280;57757;53.198;19.646;2022-09-03T06:44:05;100871.98;;;14.03;56.85
70338;BME280;57757;53.198;19.646;2022-09-03T06:46:34;100866.55;;;14.10;56.72
70338;BME280;57757;53.198;19.646;2022-09-03T06:49:05;100868.77;;;14.18;56.73
70338;BME280;57757;53.198;19.646;2022-09-03T06:51:33;100872.93;;;14.25;56.78
70338;BME280;57757;53.198;19.646;2022-09-03T06:54:04;100871.13;;;14.34;56.71
70338;BME280;57757;53.198;19.646;2022-09-03T06:56:34;100872.27;;;14.44;56.57
70338;BME280;57757;53.198;19.646;2022-09-03T06:59:09;100870.60;;;14.53;56.55
70338;BME280;57757;53.198;19.646;2022-09-03T07:01:37;100864.60;;;14.61;56.26
70338;BME280;57757;53.198;19.646;2022-09-03T07:04:12;100864.72;;;14.69;56.32
70338;BME280;57757;53.198;19.646;2022-09-03T07:06:43;100862.01;;;14.77;56.20
70338;BME280;57757;53.198;19.646;2022-09-03T07:09:13;100861.46;;;14.84;56.19
70338;BME280;57757;53.198;19.646;2022-09-03T07:11:42;100862.83;;;14.91;56.24
70338;BME280;57757;53.198;19.646;2022-09-03T07:14:19;100863.14;;;14.98;56.16
70338;BME280;57757;53.198;19.646;2022-09-03T07:16:48;100863.04;;;15.06;56.13
70338;BME280;57757;53.198;19.646;2022-09-03T07:19:16;100861.44;;;15.13;55.91
70338;BME280;57757;53.198;19.646;2022-09-03T07:21:44;100861.41;;;15.19;56.04
70338;BME280;57757;53.198;19.646;2022-09-03T07:24:18;100860.27;;;15.28;56.08
70338;BME280;57757;53.198;19.646;2022-09-03T07:26:46;100866.80;;;15.37;56.07
70338;BME280;57757;53.198;19.646;2022-09-03T07:29:16;100867.39;;;15.46;56.07
70338;BME280;57757;53.198;19.646;2022-09-03T07:31:50;100867.82;;;15.55;56.10
70338;BME280;57757;53.198;19.646;2022-09-03T07:34:20;100872.25;;;15.64;55.77
70338;BME280;57757;53.198;19.646;2022-09-03T07:36:53;100872.44;;;15.74;55.73
70338;BME280;57757;53.198;19.646;2022-09-03T07:39:21;100872.83;;;15.83;55.93
70338;BME280;57757;53.198;19.646;2022-09-03T07:41:49;100868.11;;;15.93;55.68
70338;BME280;57757;53.198;19.646;2022-09-03T07:44:17;100868.33;;;16.02;55.51
70338;BME280;57757;53.198;19.646;2022-09-03T07:46:51;100869.44;;;16.10;55.45
70338;BME280;57757;53.198;19.646;2022-09-03T07:49:19;100872.67;;;16.17;55.24
70338;BME280;57757;53.198;19.646;2022-09-03T07:51:49;100873.45;;;16.25;55.11
70338;BME280;57757;53.198;19.646;2022-09-03T07:54:18;100874.85;;;16.35;55.12
70338;BME280;57757;53.198;19.646;2022-09-03T07:56:47;100879.92;;;16.45;55.06
70338;BME280;57757;53.198;19.646;2022-09-03T07:59:15;100877.66;;;16.54;54.84
70338;BME280;57757;53.198;19.646;2022-09-03T08:01:43;100873.67;;;16.63;54.50
70338;BME280;57757;53.198;19.646;2022-09-03T08:04:10;100873.14;;;16.73;54.32
70338;BME280;57757;53.198;19.646;2022-09-03T08:06:38;100872.08;;;16.86;54.53
70338;BME280;57757;53.198;19.646;2022-09-03T08:09:09;100871.44;;;17.02;54.31
70338;BME280;57757;53.198;19.646;2022-09-03T08:11:39;100868.80;;;17.20;54.28
70338;BME280;57757;53.198;19.646;2022-09-03T08:14:09;100872.80;;;17.39;54.22
70338;BME280;57757;53.198;19.646;2022-09-03T08:16:40;100874.89;;;17.56;54.08
70338;BME280;57757;53.198;19.646;2022-09-03T08:19:09;100873.27;;;17.75;54.20
70338;BME280;57757;53.198;19.646;2022-09-03T08:21:37;100874.91;;;17.94;54.13
70338;BME280;57757;53.198;19.646;2022-09-03T08:24:09;100870.88;;;18.14;54.07
70338;BME280;57757;53.198;19.646;2022-09-03T08:26:39;100875.20;;;18.31;53.69
70338;BME280;57757;53.198;19.646;2022-09-03T08:29:14;100871.90;;;18.50;53.61
70338;BME280;57757;53.198;19.646;2022-09-03T08:31:41;100869.30;;;18.69;53.42
70338;BME280;57757;53.198;19.646;2022-09-03T08:34:10;100865.59;;;18.84;53.13
70338;BME280;57757;53.198;19.646;2022-09-03T08:36:39;100867.59;;;18.98;53.01
70338;BME280;57757;53.198;19.646;2022-09-03T08:39:10;100869.18;;;19.16;52.99
70338;BME280;57757;53.198;19.646;2022-09-03T08:41:57;100864.89;;;19.32;52.76
70338;BME280;57757;53.198;19.646;2022-09-03T08:47:45;100871.57;;;19.72;52.34
70338;BME280;57757;53.198;19.646;2022-09-03T08:50:31;100871.70;;;19.90;52.22
70338;BME280;57757;53.198;19.646;2022-09-03T08:53:25;100869.89;;;20.11;52.05
70338;BME280;57757;53.198;19.646;2022-09-03T08:56:03;100864.58;;;20.36;51.77
70338;BME280;57757;53.198;19.646;2022-09-03T08:58:35;100861.45;;;20.54;51.54
70338;BME280;57757;53.198;19.646;2022-09-03T09:01:35;100858.81;;;20.73;51.26
70338;BME280;57757;53.198;19.646;2022-09-03T09:04:20;100861.56;;;20.94;50.83
70338;BME280;57757;53.198;19.646;2022-09-03T09:19:04;100850.02;;;22.02;49.88
70338;BME280;57757;53.198;19.646;2022-09-03T09:21:59;100853.88;;;22.17;49.51
70338;BME280;57757;53.198;19.646;2022-09-03T09:24:36;100858.33;;;22.33;49.39
70338;BME280;57757;53.198;19.646;2022-09-03T09:27:06;100855.02;;;22.50;49.20
70338;BME280;57757;53.198;19.646;2022-09-03T09:29:35;100855.65;;;22.60;48.92
70338;BME280;57757;53.198;19.646;2022-09-03T09:32:07;100855.38;;;22.67;48.77
70338;BME280;57757;53.198;19.646;2022-09-03T09:34:37;100857.81;;;22.79;48.49
70338;BME280;57757;53.198;19.646;2022-09-03T09:37:08;100861.09;;;22.97;48.57
70338;BME280;57757;53.198;19.646;2022-09-03T09:39:38;100860.68;;;23.17;48.32
70338;BME280;57757;53.198;19.646;2022-09-03T09:42:09;100864.05;;;23.33;48.09
70338;BME280;57757;53.198;19.646;2022-09-03T09:44:41;100860.55;;;23.54;47.90
70338;BME280;57757;53.198;19.646;2022-09-03T09:47:14;100861.98;;;23.75;47.61
70338;BME280;57757;53.198;19.646;2022-09-03T09:49:55;100857.33;;;23.94;47.41
70338;BME280;57757;53.198;19.646;2022-09-03T09:52:25;100856.58;;;24.15;47.20
70338;BME280;57757;53.198;19.646;2022-09-03T09:55:15;100857.20;;;24.34;46.99
70338;BME280;57757;53.198;19.646;2022-09-03T09:57:45;100858.02;;;24.55;46.74
70338;BME280;57757;53.198;19.646;2022-09-03T10:00:15;100853.02;;;24.73;46.39
70338;BME280;57757;53.198;19.646;2022-09-03T10:02:51;100848.10;;;24.92;46.19
70338;BME280;57757;53.198;19.646;2022-09-03T10:05:26;100847.16;;;25.05;45.68
70338;BME280;57757;53.198;19.646;2022-09-03T10:07:58;100843.73;;;25.19;45.61
70338;BME280;57757;53.198;19.646;2022-09-03T10:10:27;100840.63;;;25.40;45.46
70338;BME280;57757;53.198;19.646;2022-09-03T10:13:09;100841.66;;;25.62;45.30
70338;BME280;57757;53.198;19.646;2022-09-03T10:15:46;100841.13;;;25.85;45.06
70338;BME280;57757;53.198;19.646;2022-09-03T10:18:31;100840.52;;;26.04;44.53
70338;BME280;57757;53.198;19.646;2022-09-03T10:26:13;100838.94;;;26.32;43.72
70338;BME280;57757;53.198;19.646;2022-09-03T10:28:50;100828.86;;;26.42;43.43
70338;BME280;57757;53.198;19.646;2022-09-03T10:40:05;100827.64;;;27.07;42.93
70338;BME280;57757;53.198;19.646;2022-09-03T10:50:59;100831.12;;;27.79;41.77
70338;BME280;57757;53.198;19.646;2022-09-03T10:59:34;100824.48;;;28.59;41.06
70338;BME280;57757;53.198;19.646;2022-09-03T11:02:12;100828.41;;;28.75;40.32
70338;BME280;57757;53.198;19.646;2022-09-03T11:07:47;100819.85;;;29.01;40.08
70338;BME280;57757;53.198;19.646;2022-09-03T11:10:27;100817.50;;;29.29;40.09
70338;BME280;57757;53.198;19.646;2022-09-03T11:13:09;100817.48;;;29.56;39.77
70338;BME280;57757;53.198;19.646;2022-09-03T11:16:39;100819.05;;;29.73;39.19
70338;BME280;57757;53.198;19.646;2022-09-03T11:18:56;100810.86;;;29.92;38.95
70338;BME280;57757;53.198;19.646;2022-09-03T11:21:29;100811.38;;;30.00;38.72
70338;BME280;57757;53.198;19.646;2022-09-03T11:26:35;100806.67;;;30.08;38.31
70338;BME280;57757;53.198;19.646;2022-09-03T11:40:12;100793.05;;;30.92;37.11
70338;BME280;57757;53.198;19.646;2022-09-03T11:42:43;100797.23;;;30.86;36.62
70338;BME280;57757;53.198;19.646;2022-09-03T11:47:45;100794.65;;;31.12;36.51
70338;BME280;57757;53.198;19.646;2022-09-03T11:50:23;100787.91;;;31.31;36.10
70338;BME280;57757;53.198;19.646;2022-09-03T11:58:24;100781.79;;;31.99;35.69
70338;BME280;57757;53.198;19.646;2022-09-03T12:00:54;100780.55;;;32.26;35.63
70338;BME280;57757;53.198;19.646;2022-09-03T12:03:25;100772.36;;;32.42;35.10
70338;BME280;57757;53.198;19.646;2022-09-03T12:20:41;100753.58;;;33.26;33.38
70338;BME280;57757;53.198;19.646;2022-09-03T12:23:10;100750.39;;;33.37;33.35
70338;BME280;57757;53.198;19.646;2022-09-03T12:25:43;100744.55;;;33.55;32.71
70338;BME280;57757;53.198;19.646;2022-09-03T12:28:21;100744.59;;;33.65;32.67
70338;BME280;57757;53.198;19.646;2022-09-03T12:30:50;100742.88;;;33.74;32.52
70338;BME280;57757;53.198;19.646;2022-09-03T12:33:21;100746.17;;;33.90;32.44
70338;BME280;57757;53.198;19.646;2022-09-03T12:35:57;100745.56;;;34.05;32.33
70338;BME280;57757;53.198;19.646;2022-09-03T12:38:28;100744.97;;;34.20;32.03
70338;BME280;57757;53.198;19.646;2022-09-03T12:41:28;100740.16;;;34.38;31.85
70338;BME280;57757;53.198;19.646;2022-09-03T12:43:58;100742.99;;;34.61;31.66
70338;BME280;57757;53.198;19.646;2022-09-03T12:46:31;100745.89;;;34.76;31.18
70338;BME280;57757;53.198;19.646;2022-09-03T12:49:04;100747.24;;;34.86;30.71
70338;BME280;57757;53.198;19.646;2022-09-03T12:52:04;100737.79;;;34.93;30.93
70338;BME280;57757;53.198;19.646;2022-09-03T12:54:37;100740.42;;;35.09;30.28
70338;BME280;57757;53.198;19.646;2022-09-03T12:57:08;100737.45;;;35.30;30.25
70338;BME280;57757;53.198;19.646;2022-09-03T12:59:38;100733.64;;;35.66;29.96
70338;BME280;57757;53.198;19.646;2022-09-03T13:02:21;100733.05;;;35.93;29.76
70338;BME280;57757;53.198;19.646;2022-09-03T13:04:51;100729.85;;;36.27;29.58
70338;BME280;57757;53.198;19.646;2022-09-03T13:07:30;100728.07;;;36.47;29.42
70338;BME280;57757;53.198;19.646;2022-09-03T13:10:04;100726.75;;;36.82;29.06
70338;BME280;57757;53.198;19.646;2022-09-03T13:12:42;100721.73;;;37.07;29.08
70338;BME280;57757;53.198;19.646;2022-09-03T13:15:17;100721.52;;;37.30;28.80
70338;BME280;57757;53.198;19.646;2022-09-03T13:29:32;100719.59;;;38.45;27.46
70338;BME280;57757;53.198;19.646;2022-09-03T13:37:47;100703.29;;;38.74;26.71
70338;BME280;57757;53.198;19.646;2022-09-03T13:40:22;100699.85;;;38.85;26.61
70338;BME280;57757;53.198;19.646;2022-09-03T13:42:54;100701.11;;;38.86;26.35
70338;BME280;57757;53.198;19.646;2022-09-03T13:45:34;100697.98;;;38.96;26.06
70338;BME280;57757;53.198;19.646;2022-09-03T13:53:56;100697.51;;;39.30;25.36
70338;BME280;57757;53.198;19.646;2022-09-03T13:56:33;100694.36;;;39.55;25.31
70338;BME280;57757;53.198;19.646;2022-09-03T13:59:14;100692.34;;;39.69;25.00
70338;BME280;57757;53.198;19.646;2022-09-03T14:02:10;100688.94;;;39.92;24.94
70338;BME280;57757;53.198;19.646;2022-09-03T14:07:52;100682.27;;;40.50;24.32
70338;BME280;57757;53.198;19.646;2022-09-03T14:16:33;100675.16;;;40.99;23.63
70338;BME280;57757;53.198;19.646;2022-09-03T14:19:08;100677.30;;;41.27;23.48
70338;BME280;57757;53.198;19.646;2022-09-03T14:25:08;100673.06;;;41.73;23.02
70338;BME280;57757;53.198;19.646;2022-09-03T14:27:37;100670.17;;;41.82;22.80
70338;BME280;57757;53.198;19.646;2022-09-03T14:30:16;100666.24;;;41.84;22.53
70338;BME280;57757;53.198;19.646;2022-09-03T14:46:42;100666.63;;;42.75;21.34
70338;BME280;57757;53.198;19.646;2022-09-03T15:00:04;100670.09;;;43.07;20.33
70338;BME280;57757;53.198;19.646;2022-09-03T15:08:25;100668.33;;;43.21;19.73
70338;BME280;57757;53.198;19.646;2022-09-03T15:11:15;100668.95;;;43.22;19.58
70338;BME280;57757;53.198;19.646;2022-09-03T15:13:49;100669.76;;;43.33;19.48
70338;BME280;57757;53.198;19.646;2022-09-03T15:27:52;100669.65;;;43.92;18.59
70338;BME280;57757;53.198;19.646;2022-09-03T15:39:00;100671.23;;;43.60;17.87
70338;BME280;57757;53.198;19.646;2022-09-03T15:41:42;100673.00;;;43.29;17.68
70338;BME280;57757;53.198;19.646;2022-09-03T15:44:16;100670.60;;;42.89;17.58
70338;BME280;57757;53.198;19.646;2022-09-03T15:49:51;100664.73;;;42.27;17.63
70338;BME280;57757;53.198;19.646;2022-09-03T15:57:55;100671.83;;;42.26;17.40
70338;BME280;57757;53.198;19.646;2022-09-03T16:00:50;100671.53;;;42.22;17.28
70338;BME280;57757;53.198;19.646;2022-09-03T16:06:05;100673.54;;;41.97;17.08
70338;BME280;57757;53.198;19.646;2022-09-03T16:11:29;100674.58;;;41.71;16.85
70338;BME280;57757;53.198;19.646;2022-09-03T16:19:25;100672.66;;;41.22;16.73
70338;BME280;57757;53.198;19.646;2022-09-03T16:22:06;100674.45;;;41.15;16.59
70338;BME280;57757;53.198;19.646;2022-09-03T16:24:46;100673.72;;;41.01;16.52
70338;BME280;57757;53.198;19.646;2022-09-03T16:27:20;100675.48;;;40.80;16.41
70338;BME280;57757;53.198;19.646;2022-09-03T16:30:09;100677.37;;;40.52;16.34
70338;BME280;57757;53.198;19.646;2022-09-03T16:32:53;100676.23;;;39.96;16.05
70338;BME280;57757;53.198;19.646;2022-09-03T16:41:07;100677.80;;;38.98;16.26
70338;BME280;57757;53.198;19.646;2022-09-03T16:49:39;100672.20;;;37.63;16.12
70338;BME280;57757;53.198;19.646;2022-09-03T17:00:21;100672.66;;;35.19;16.60
70338;BME280;57757;53.198;19.646;2022-09-03T17:06:35;100666.92;;;32.98;16.42
70338;BME280;57757;53.198;19.646;2022-09-03T17:09:05;100666.98;;;31.58;16.93
70338;BME280;57757;53.198;19.646;2022-09-03T17:11:47;100670.80;;;30.77;17.22
70338;BME280;57757;53.198;19.646;2022-09-03T17:14:22;100669.86;;;29.81;17.20
70338;BME280;57757;53.198;19.646;2022-09-03T17:17:03;100678.08;;;28.59;17.48
70338;BME280;57757;53.198;19.646;2022-09-03T17:25:38;100679.25;;;25.43;18.66
70338;BME280;57757;53.198;19.646;2022-09-03T17:30:56;100686.83;;;23.86;19.51